createdAt,value
2023-02-02T00:02:43.384Z,3.17
2023-02-02T00:05:53.271Z,4.10
2023-02-02T00:08:57.618Z,3.60
2023-02-02T00:12:00.430Z,3.27
2023-02-02T00:15:01.840Z,3.07
2023-02-02T00:18:03.496Z,3.30
2023-02-02T00:21:05.045Z,3.10
2023-02-02T00:24:20.612Z,3.10
2023-02-02T00:27:21.990Z,3.53
2023-02-02T00:30:23.623Z,2.90
2023-02-02T00:33:25.008Z,3.00
2023-02-02T00:36:26.412Z,2.80
2023-02-02T00:39:27.989Z,3.23
2023-02-02T00:42:29.457Z,3.03
2023-02-02T00:45:31.171Z,2.87
2023-02-02T00:48:32.573Z,3.50
2023-02-02T00:51:34.429Z,3.27
2023-02-02T00:54:35.875Z,3.03
2023-02-02T00:57:37.452Z,3.40
2023-02-02T01:00:38.907Z,2.90
2023-02-02T01:03:40.331Z,3.37
2023-02-02T01:06:42.171Z,2.97
2023-02-02T01:09:43.692Z,3.23
2023-02-02T01:12:46.157Z,3.33
2023-02-02T01:15:47.529Z,3.00
2023-02-02T01:18:50.277Z,3.50
2023-02-02T01:21:51.708Z,3.80
2023-02-02T01:24:55.015Z,3.53
2023-02-02T01:27:57.268Z,3.70
2023-02-02T01:30:59.616Z,3.30
2023-02-02T01:34:01.024Z,3.20
2023-02-02T01:37:04.923Z,4.07
2023-02-02T01:40:07.294Z,4.07
2023-02-02T01:43:28.676Z,3.00
2023-02-02T01:46:35.119Z,3.00
2023-02-02T01:49:38.434Z,3.70
2023-02-02T01:52:41.800Z,4.10
2023-02-02T01:55:44.383Z,3.57
2023-02-02T01:58:46.395Z,2.97
2023-02-02T02:01:49.051Z,3.50
2023-02-02T02:04:51.613Z,3.70
2023-02-02T02:08:01.800Z,3.33
2023-02-02T02:11:03.283Z,2.90
2023-02-02T02:14:27.585Z,3.50
2023-02-02T02:17:38.563Z,3.50
2023-02-02T02:21:27.675Z,3.27
2023-02-02T02:25:23.090Z,3.50
2023-02-02T02:28:51.515Z,3.37
2023-02-02T02:32:23.567Z,2.87
2023-02-02T02:35:33.220Z,3.87
2023-02-02T02:38:47.380Z,3.63
2023-02-02T02:41:53.939Z,3.03
2023-02-02T02:44:57.156Z,3.07
2023-02-02T02:47:58.909Z,3.17
2023-02-02T02:51:08.756Z,3.73
2023-02-02T02:54:32.260Z,3.00
2023-02-02T02:57:44.670Z,3.83
2023-02-02T03:01:02.490Z,3.50
2023-02-02T03:04:43.226Z,3.30
2023-02-02T03:07:53.844Z,3.10
2023-02-02T03:10:57.874Z,3.47
2023-02-02T03:14:01.175Z,3.40
2023-02-02T03:17:03.036Z,2.70
2023-02-02T03:20:04.718Z,2.97
2023-02-02T03:23:06.104Z,3.43
2023-02-02T03:26:07.605Z,3.70
2023-02-02T03:29:09.003Z,3.57
2023-02-02T03:32:10.413Z,3.37
2023-02-02T03:35:11.879Z,3.30
2023-02-02T03:38:13.271Z,2.80
2023-02-02T03:41:15.179Z,3.27
2023-02-02T03:44:16.593Z,2.90
2023-02-02T03:47:18.052Z,3.23
2023-02-02T03:50:19.421Z,3.20
2023-02-02T03:53:21.710Z,3.70
2023-02-02T03:56:23.114Z,3.30
2023-02-02T03:59:24.531Z,3.10
2023-02-02T04:02:25.940Z,3.33
2023-02-02T04:05:27.837Z,3.03
2023-02-02T04:08:29.400Z,3.00
2023-02-02T04:11:30.929Z,3.10
2023-02-02T04:14:32.330Z,3.37
2023-02-02T04:17:35.218Z,3.33
2023-02-02T04:20:36.604Z,3.10
2023-02-02T04:23:38.055Z,2.73
2023-02-02T04:26:39.686Z,3.40
2023-02-02T04:29:41.113Z,3.53
2023-02-02T04:32:42.505Z,2.73
2023-02-02T04:35:44.000Z,3.37
2023-02-02T04:38:52.142Z,2.93
2023-02-02T04:41:53.531Z,3.33
2023-02-02T04:44:54.908Z,3.17
2023-02-02T04:47:56.289Z,3.30
2023-02-02T04:51:10.104Z,3.53
2023-02-02T04:54:11.552Z,3.10
2023-02-02T04:57:13.118Z,2.77
2023-02-02T05:00:14.896Z,3.13
2023-02-02T05:03:16.393Z,2.73
2023-02-02T05:06:19.407Z,3.23
2023-02-02T05:09:20.911Z,2.90
2023-02-02T05:12:22.277Z,3.13
2023-02-02T05:15:24.081Z,3.13
2023-02-02T05:18:25.815Z,3.10
2023-02-02T05:21:27.712Z,3.20
2023-02-02T05:24:29.125Z,3.30
2023-02-02T05:27:30.509Z,2.93
2023-02-02T05:30:33.565Z,3.13
2023-02-02T05:33:35.295Z,3.93
2023-02-02T05:36:36.746Z,2.77
2023-02-02T05:39:38.222Z,3.20
2023-02-02T05:42:39.604Z,3.57
2023-02-02T05:45:41.841Z,3.43
2023-02-02T05:48:43.299Z,4.13
2023-02-02T05:51:47.778Z,2.87
2023-02-02T05:54:49.263Z,2.47
2023-02-02T05:57:50.695Z,3.70
2023-02-02T06:00:52.572Z,3.07
2023-02-02T06:03:55.031Z,3.00
2023-02-02T06:06:56.536Z,3.17
2023-02-02T06:09:58.230Z,3.77
2023-02-02T06:12:59.620Z,3.27
2023-02-02T06:16:01.086Z,2.93
2023-02-02T06:19:02.726Z,3.00
2023-02-02T06:22:04.153Z,3.10
2023-02-02T06:25:07.799Z,3.30
2023-02-02T06:28:09.401Z,3.17
2023-02-02T06:31:11.787Z,3.10
2023-02-02T06:34:16.063Z,3.03
2023-02-02T06:37:17.446Z,3.60
2023-02-02T06:40:18.874Z,3.33
2023-02-02T06:43:20.386Z,3.13
2023-02-02T06:46:21.924Z,3.07
2023-02-02T06:49:23.327Z,2.90
2023-02-02T06:52:24.710Z,2.70
2023-02-02T06:55:26.490Z,2.53
2023-02-02T06:58:29.989Z,2.80
2023-02-02T07:01:31.671Z,3.10
2023-02-02T07:04:33.079Z,2.77
2023-02-02T07:07:35.327Z,2.90
2023-02-02T07:11:12.636Z,3.47
2023-02-02T07:13:59.870Z,3.03
2023-02-02T07:17:01.396Z,3.53
2023-02-02T07:20:02.989Z,3.20
2023-02-02T07:23:04.688Z,3.20
2023-02-02T07:26:10.590Z,3.23
2023-02-02T07:29:16.391Z,2.57
2023-02-02T07:32:17.847Z,2.87
2023-02-02T07:35:19.232Z,3.03
2023-02-02T07:38:20.821Z,3.10
2023-02-02T07:41:22.911Z,3.33
2023-02-02T07:44:24.299Z,2.73
2023-02-02T07:47:26.122Z,3.00
2023-02-02T07:50:29.376Z,2.80
2023-02-02T07:53:31.494Z,3.37
2023-02-02T07:56:33.072Z,3.13
2023-02-02T07:59:34.530Z,3.23
2023-02-02T08:02:35.945Z,3.10
2023-02-02T08:05:37.458Z,3.13
2023-02-02T08:08:38.837Z,2.90
2023-02-02T08:11:40.303Z,3.37
2023-02-02T08:14:42.328Z,3.17
2023-02-02T08:17:49.759Z,2.70
2023-02-02T08:20:52.582Z,3.53
2023-02-02T08:23:54.176Z,3.50
2023-02-02T08:26:55.603Z,3.43
2023-02-02T08:29:57.049Z,2.87
2023-02-02T08:32:58.446Z,3.40
2023-02-02T08:36:00.089Z,2.83
2023-02-02T08:39:04.265Z,2.80
2023-02-02T08:42:05.676Z,3.57
2023-02-02T08:46:02.362Z,3.27
2023-02-02T08:48:29.229Z,3.13
2023-02-02T08:51:30.809Z,3.10
2023-02-02T08:54:32.199Z,3.20
2023-02-02T08:57:34.419Z,2.83
2023-02-02T09:00:35.881Z,3.00
2023-02-02T09:03:40.058Z,2.93
2023-02-02T09:06:42.156Z,3.10
2023-02-02T09:09:43.569Z,3.23
2023-02-02T09:12:44.979Z,2.93
2023-02-02T09:15:46.342Z,3.03
2023-02-02T09:18:47.784Z,3.00
2023-02-02T09:21:50.421Z,2.97
2023-02-02T09:24:51.824Z,3.00
2023-02-02T09:27:53.209Z,2.83
2023-02-02T09:30:54.585Z,2.97
2023-02-02T09:33:59.974Z,2.73
2023-02-02T09:37:01.403Z,2.80
2023-02-02T09:40:03.050Z,2.97
2023-02-02T09:43:34.702Z,3.10
2023-02-02T09:46:57.623Z,2.80
2023-02-02T09:50:05.970Z,3.00
2023-02-02T09:53:20.859Z,2.90
2023-02-02T09:56:54.673Z,2.80
2023-02-02T09:59:56.439Z,2.93
2023-02-02T10:03:20.879Z,2.90
2023-02-02T10:06:38.506Z,3.63
2023-02-02T10:09:59.473Z,3.07
2023-02-02T10:13:15.986Z,3.07
2023-02-02T10:16:19.447Z,3.00
2023-02-02T10:19:25.266Z,2.60
2023-02-02T10:22:29.550Z,3.07
2023-02-02T10:25:33.540Z,2.90
2023-02-02T10:28:48.298Z,3.00
2023-02-02T10:32:23.077Z,3.23
2023-02-02T10:35:39.202Z,3.03
2023-02-02T10:38:58.367Z,2.80
2023-02-02T10:42:13.969Z,3.07
2023-02-02T10:45:19.024Z,2.90
2023-02-02T10:48:28.983Z,2.87
2023-02-02T10:51:30.452Z,3.10
2023-02-02T10:54:57.801Z,3.17
2023-02-02T10:58:24.656Z,3.00
2023-02-02T11:01:26.219Z,2.50
2023-02-02T11:04:47.791Z,2.80
2023-02-02T11:07:49.913Z,3.37
2023-02-02T11:10:54.728Z,2.93
2023-02-02T11:14:03.250Z,2.77
2023-02-02T11:17:06.389Z,2.30
2023-02-02T11:20:32.306Z,2.87
2023-02-02T11:23:33.729Z,2.83
2023-02-02T11:26:56.938Z,2.77
2023-02-02T11:30:00.933Z,2.90
2023-02-02T11:33:33.392Z,3.17
2023-02-02T11:36:34.806Z,2.10
2023-02-02T11:39:36.200Z,2.07
2023-02-02T11:42:37.619Z,2.43
2023-02-02T11:45:42.685Z,2.20
2023-02-02T11:48:59.142Z,2.37
2023-02-02T11:52:07.107Z,1.80
2023-02-02T11:55:18.683Z,1.90
2023-02-02T11:58:24.919Z,2.10
2023-02-02T12:01:39.390Z,2.33
2023-02-02T12:04:40.888Z,2.10
2023-02-02T12:07:44.381Z,2.10
2023-02-02T12:10:55.621Z,2.47
2023-02-02T12:14:05.296Z,1.90
2023-02-02T12:17:38.825Z,2.33
2023-02-02T12:20:57.387Z,2.30
2023-02-02T12:24:26.956Z,2.10
2023-02-02T12:28:13.393Z,2.07
2023-02-02T12:31:33.639Z,2.27
2023-02-02T12:34:50.251Z,1.83
2023-02-02T12:38:13.717Z,2.10
2023-02-02T12:41:38.046Z,2.17
2023-02-02T12:44:51.162Z,2.07
2023-02-02T12:48:30.828Z,2.20
2023-02-02T12:51:44.635Z,2.17
2023-02-02T12:55:19.839Z,2.23
2023-02-02T12:58:32.782Z,2.40
2023-02-02T13:02:20.903Z,2.00
2023-02-02T13:05:31.450Z,2.00
2023-02-02T13:08:51.861Z,2.17
2023-02-02T13:12:01.919Z,2.40
2023-02-02T13:15:07.879Z,1.67
2023-02-02T13:18:19.638Z,1.70
2023-02-02T13:21:23.612Z,1.63
2023-02-02T13:24:31.062Z,1.90
2023-02-02T13:27:32.995Z,1.60
2023-02-02T13:30:38.277Z,1.80
2023-02-02T13:33:43.581Z,2.03
2023-02-02T13:36:53.398Z,1.50
2023-02-02T13:40:03.135Z,1.90
2023-02-02T13:43:24.333Z,1.97
2023-02-02T13:46:34.151Z,1.60
2023-02-02T13:49:43.309Z,1.93
2023-02-02T13:52:59.903Z,1.90
2023-02-02T13:56:23.897Z,2.07
2023-02-02T13:59:52.416Z,1.50
2023-02-02T14:02:57.187Z,1.63
2023-02-02T14:06:23.191Z,1.80
2023-02-02T14:09:30.535Z,1.83
2023-02-02T14:12:35.180Z,1.97
2023-02-02T14:15:43.236Z,1.70
2023-02-02T14:18:59.600Z,2.00
2023-02-02T14:22:02.724Z,1.97
2023-02-02T14:25:29.965Z,1.70
2023-02-02T14:28:44.767Z,2.07
2023-02-02T14:31:53.973Z,2.33
2023-02-02T14:34:56.923Z,1.93
2023-02-02T14:38:05.840Z,1.83
2023-02-02T14:41:42.984Z,1.90
2023-02-02T14:45:25.215Z,2.10
2023-02-02T14:48:26.861Z,2.50
2023-02-02T14:51:31.589Z,1.97
2023-02-02T14:54:37.592Z,2.17
2023-02-02T14:57:38.996Z,2.00
2023-02-02T15:00:40.450Z,2.00
2023-02-02T15:04:14.091Z,2.10
2023-02-02T15:07:24.693Z,2.17
2023-02-02T15:10:57.966Z,2.00
2023-02-02T15:14:07.188Z,2.30
2023-02-02T15:17:34.466Z,1.90
2023-02-02T15:20:42.879Z,2.67
2023-02-02T15:23:46.261Z,2.87
2023-02-02T15:26:49.566Z,2.13
2023-02-02T15:30:02.283Z,2.23
2023-02-02T15:33:15.197Z,2.37
2023-02-02T15:36:27.461Z,2.20
2023-02-02T15:39:51.402Z,1.97
2023-02-02T15:42:58.696Z,2.17
2023-02-02T15:46:10.985Z,2.30
2023-02-02T15:49:32.709Z,2.30
2023-02-02T15:52:46.305Z,2.10
2023-02-02T15:55:48.050Z,2.40
2023-02-02T15:58:51.579Z,1.77
2023-02-02T16:02:23.992Z,2.17
2023-02-02T16:05:41.591Z,2.10
2023-02-02T16:08:43.267Z,1.83
2023-02-02T16:11:47.500Z,2.03
2023-02-02T16:14:55.322Z,2.10
2023-02-02T16:18:04.596Z,2.37
2023-02-02T16:21:15.184Z,1.80
2023-02-02T16:24:42.928Z,2.33
2023-02-02T16:27:47.672Z,2.47
2023-02-02T16:30:51.689Z,2.27
2023-02-02T16:33:53.262Z,2.20
2023-02-02T16:37:07.346Z,2.10
2023-02-02T16:40:26.446Z,1.90
2023-02-02T16:43:29.678Z,1.80
2023-02-02T16:46:49.822Z,2.47
2023-02-02T16:50:18.487Z,2.27
2023-02-02T16:53:24.159Z,1.87
2023-02-02T16:56:40.685Z,2.27
2023-02-02T16:59:47.594Z,1.93
2023-02-02T17:03:00.288Z,2.00
2023-02-02T17:06:03.046Z,1.87
2023-02-02T17:09:33.215Z,2.20
2023-02-02T17:12:35.927Z,1.80
2023-02-02T17:15:37.432Z,1.70
2023-02-02T17:18:39.538Z,1.70
2023-02-02T17:21:41.429Z,2.27
2023-02-02T17:24:48.831Z,1.60
2023-02-02T17:27:50.419Z,1.80
2023-02-02T17:30:58.690Z,1.80
2023-02-02T17:34:00.247Z,1.60
2023-02-02T17:37:01.765Z,1.10
2023-02-02T17:40:03.226Z,2.00
2023-02-02T17:43:06.127Z,1.50
2023-02-02T17:46:11.905Z,1.70
2023-02-02T17:49:13.426Z,1.57
2023-02-02T17:52:14.855Z,1.73
2023-02-02T17:55:21.265Z,1.47
2023-02-02T17:58:22.756Z,1.50
2023-02-02T18:01:24.240Z,1.80
2023-02-02T18:04:26.847Z,2.00
2023-02-02T18:07:28.347Z,2.00
2023-02-02T18:10:30.184Z,2.10
2023-02-02T18:13:31.849Z,2.17
2023-02-02T18:16:33.287Z,2.07
2023-02-02T18:19:34.696Z,2.00
2023-02-02T18:22:36.078Z,2.10
2023-02-02T18:25:39.228Z,1.93
2023-02-02T18:28:41.518Z,2.10
2023-02-02T18:31:42.989Z,2.17
2023-02-02T18:34:45.557Z,2.00
2023-02-02T18:37:47.065Z,2.00
2023-02-02T18:40:55.807Z,1.90
2023-02-02T18:43:57.303Z,1.77
2023-02-02T18:46:58.727Z,2.57
2023-02-02T18:50:00.133Z,1.87
2023-02-02T18:53:01.573Z,2.10
2023-02-02T18:56:07.498Z,1.90
2023-02-02T18:59:09.050Z,1.97
2023-02-02T19:02:15.293Z,1.90
2023-02-02T19:05:35.339Z,2.00
2023-02-02T19:08:36.824Z,2.13
2023-02-02T19:11:44.884Z,1.67
2023-02-02T19:14:46.419Z,2.33
2023-02-02T19:17:51.518Z,1.67
2023-02-02T19:20:53.202Z,1.87
2023-02-02T19:23:54.583Z,1.93
2023-02-02T19:26:56.116Z,2.07
2023-02-02T19:30:03.917Z,2.00
2023-02-02T19:33:11.954Z,1.97
2023-02-02T19:36:19.533Z,1.80
2023-02-02T19:39:28.142Z,2.10
2023-02-02T19:42:29.571Z,1.97
2023-02-02T19:45:35.220Z,2.30
2023-02-02T19:48:39.021Z,2.13
2023-02-02T19:51:46.415Z,1.93
2023-02-02T19:54:48.935Z,1.90
2023-02-02T19:57:52.090Z,2.23
2023-02-02T20:00:56.014Z,1.87
2023-02-02T20:03:58.451Z,1.63
2023-02-02T20:07:00.027Z,1.70
2023-02-02T20:10:20.816Z,2.40
2023-02-02T20:13:24.001Z,2.00
2023-02-02T20:16:35.849Z,2.27
2023-02-02T20:19:41.309Z,2.23
2023-02-02T20:22:43.767Z,2.40
2023-02-02T20:25:45.595Z,2.30
2023-02-02T20:28:48.477Z,2.00
2023-02-02T20:31:52.775Z,2.57
2023-02-02T20:34:57.343Z,2.40
2023-02-02T20:37:59.173Z,2.13
2023-02-02T20:41:00.562Z,2.57
2023-02-02T20:44:01.998Z,2.63
2023-02-02T20:47:04.064Z,2.13
2023-02-02T20:50:06.703Z,2.30
2023-02-02T20:53:08.202Z,3.67
2023-02-02T20:56:09.674Z,2.70
2023-02-02T20:59:11.067Z,3.10
2023-02-02T21:02:23.412Z,2.50
2023-02-02T21:05:25.280Z,3.20
2023-02-02T21:08:26.850Z,3.43
2023-02-02T21:11:28.243Z,3.47
2023-02-02T21:14:29.633Z,2.83
2023-02-02T21:17:31.147Z,2.50
2023-02-02T21:20:32.790Z,2.80
2023-02-02T21:23:34.220Z,2.20
2023-02-02T21:26:35.632Z,2.80
2023-02-02T21:29:37.374Z,3.10
2023-02-02T21:32:38.766Z,3.67
2023-02-02T21:35:40.144Z,2.53
2023-02-02T21:38:41.545Z,2.70
2023-02-02T21:41:43.438Z,2.67
2023-02-02T21:44:51.416Z,2.10
2023-02-02T21:47:56.180Z,2.57
2023-02-02T21:50:57.751Z,2.37
2023-02-02T21:54:01.560Z,2.60
2023-02-02T21:57:13.945Z,2.27
2023-02-02T22:00:33.748Z,2.00
2023-02-02T22:03:38.179Z,2.20
2023-02-02T22:06:44.937Z,2.67
2023-02-02T22:09:48.440Z,2.50
2023-02-02T22:12:49.893Z,2.73
2023-02-02T22:15:53.059Z,2.50
2023-02-02T22:18:55.363Z,2.10
2023-02-02T22:22:08.940Z,2.77
2023-02-02T22:25:16.317Z,2.37
2023-02-02T22:28:27.154Z,2.53
2023-02-02T22:31:28.679Z,2.20
2023-02-02T22:34:30.139Z,2.20
2023-02-02T22:37:31.614Z,2.60
2023-02-02T22:40:33.562Z,2.40
2023-02-02T22:43:35.015Z,2.30
2023-02-02T22:46:36.470Z,2.60
2023-02-02T22:49:37.948Z,2.30
2023-02-02T22:52:39.554Z,2.33
2023-02-02T22:55:41.257Z,2.20
2023-02-02T22:58:42.631Z,2.30
2023-02-02T23:01:44.039Z,2.33
2023-02-02T23:04:45.414Z,2.30
2023-02-02T23:07:47.693Z,2.33
2023-02-02T23:10:49.066Z,2.30
2023-02-02T23:13:50.484Z,2.40
2023-02-02T23:16:51.866Z,1.80
2023-02-02T23:19:53.249Z,2.07
2023-02-02T23:22:54.633Z,2.20
2023-02-02T23:25:56.019Z,2.30
2023-02-02T23:28:57.389Z,2.60
2023-02-02T23:31:59.140Z,2.60
2023-02-02T23:35:00.563Z,2.17
2023-02-02T23:38:01.973Z,2.00
2023-02-02T23:41:03.349Z,2.30
2023-02-02T23:44:04.946Z,1.90
2023-02-02T23:47:06.719Z,2.27
2023-02-02T23:50:09.278Z,2.00
2023-02-02T23:53:11.133Z,2.10
2023-02-02T23:56:12.537Z,2.07
2023-02-02T23:59:13.922Z,2.30
